createdAt,value
2018-06-04T00:01:58.946Z,69.51
2018-06-04T00:05:02.268Z,69.28
2018-06-04T00:08:05.746Z,68.90
2018-06-04T00:11:08.944Z,68.79
2018-06-04T00:14:12.147Z,68.81
2018-06-04T00:17:15.335Z,69.16
2018-06-04T00:20:18.506Z,69.02
2018-06-04T00:23:21.690Z,69.26
2018-06-04T00:26:24.841Z,68.87
2018-06-04T00:29:28.019Z,68.89
2018-06-04T00:32:31.184Z,69.30
2018-06-04T00:35:34.348Z,69.42
2018-06-04T00:38:37.498Z,69.65
2018-06-04T00:41:40.676Z,69.43
2018-06-04T00:44:43.957Z,69.66
2018-06-04T00:47:47.214Z,69.55
2018-06-04T00:50:50.408Z,69.92
2018-06-04T00:53:53.584Z,69.93
2018-06-04T00:56:56.817Z,70.09
2018-06-04T00:59:59.999Z,70.80
2018-06-04T01:03:03.226Z,70.95
2018-06-04T01:06:06.405Z,70.56
2018-06-04T01:09:09.540Z,70.57
2018-06-04T01:12:12.754Z,72.57
2018-06-04T01:15:15.927Z,70.96
2018-06-04T01:18:19.091Z,70.61
2018-06-04T01:21:22.277Z,71.31
2018-06-04T01:24:25.454Z,70.56
2018-06-04T01:27:28.639Z,71.50
2018-06-04T01:30:31.822Z,70.92
2018-06-04T01:33:35.014Z,70.51
2018-06-04T01:36:38.195Z,70.83
2018-06-04T01:39:41.367Z,70.36
2018-06-04T01:42:44.563Z,70.55
2018-06-04T01:45:47.711Z,70.47
2018-06-04T01:48:50.882Z,70.75
2018-06-04T01:51:54.047Z,70.51
2018-06-04T01:54:57.274Z,70.48
2018-06-04T01:58:00.446Z,70.13
2018-06-04T02:01:03.612Z,70.26
2018-06-04T02:04:06.768Z,70.28
2018-06-04T02:07:09.937Z,70.66
2018-06-04T02:10:13.061Z,70.35
2018-06-04T02:13:16.210Z,70.98
2018-06-04T02:16:19.402Z,71.43
2018-06-04T02:19:22.523Z,70.54
2018-06-04T02:22:25.662Z,71.17
2018-06-04T02:25:28.863Z,71.11
2018-06-04T02:28:31.979Z,71.19
2018-06-04T02:31:35.201Z,71.63
2018-06-04T02:34:38.337Z,71.31
2018-06-04T02:37:41.439Z,70.70
2018-06-04T02:40:44.620Z,71.50
2018-06-04T02:43:47.775Z,71.54
2018-06-04T02:46:50.913Z,71.73
2018-06-04T02:49:54.500Z,71.51
2018-06-04T02:52:57.634Z,71.96
2018-06-04T02:56:00.847Z,72.41
2018-06-04T02:59:04.040Z,72.78
2018-06-04T03:02:07.351Z,71.62
2018-06-04T03:05:10.505Z,72.16
2018-06-04T03:08:13.722Z,72.62
2018-06-04T03:11:16.880Z,71.82
2018-06-04T03:14:20.114Z,73.12
2018-06-04T03:17:23.294Z,72.72
2018-06-04T03:20:26.485Z,73.10
2018-06-04T03:23:29.822Z,73.16
2018-06-04T03:26:34.180Z,73.34
2018-06-04T03:29:37.377Z,73.05
2018-06-04T03:32:40.531Z,72.32
2018-06-04T03:35:43.686Z,72.73
2018-06-04T03:38:46.809Z,72.88
2018-06-04T03:41:50.062Z,72.84
2018-06-04T03:44:53.531Z,73.38
2018-06-04T03:47:57.872Z,72.53
2018-06-04T03:51:01.128Z,72.44
2018-06-04T03:54:04.349Z,72.26
2018-06-04T03:57:07.498Z,72.57
2018-06-04T04:00:10.649Z,71.87
2018-06-04T04:03:13.820Z,72.36
2018-06-04T04:06:16.969Z,71.83
2018-06-04T04:09:20.187Z,72.44
2018-06-04T04:12:23.339Z,71.72
2018-06-04T04:15:26.584Z,72.43
2018-06-04T04:18:29.752Z,72.63
2018-06-04T04:21:32.991Z,72.40
2018-06-04T04:24:36.427Z,73.36
2018-06-04T04:27:39.668Z,72.44
2018-06-04T04:30:42.885Z,71.99
2018-06-04T04:33:46.066Z,71.30
2018-06-04T04:36:49.204Z,71.21
2018-06-04T04:39:52.527Z,70.91
2018-06-04T04:42:55.743Z,71.58
2018-06-04T04:45:58.949Z,71.98
2018-06-04T04:49:02.125Z,71.94
2018-06-04T04:52:05.352Z,70.96
2018-06-04T04:55:08.538Z,70.79
2018-06-04T04:58:11.722Z,70.56
2018-06-04T05:01:14.916Z,70.85
2018-06-04T05:04:18.100Z,70.68
2018-06-04T05:07:21.336Z,71.55
2018-06-04T05:10:24.520Z,70.98
2018-06-04T05:13:27.698Z,70.43
2018-06-04T05:16:30.897Z,69.90
2018-06-04T05:19:34.134Z,69.53
2018-06-04T05:22:37.299Z,70.00
2018-06-04T05:25:40.476Z,69.79
2018-06-04T05:28:43.622Z,69.52
2018-06-04T05:31:46.868Z,69.81
2018-06-04T05:34:50.012Z,69.56
2018-06-04T05:37:55.164Z,69.19
2018-06-04T05:40:58.325Z,69.68
2018-06-04T05:44:01.477Z,68.61
2018-06-04T05:47:04.633Z,68.23
2018-06-04T05:50:07.772Z,68.50
2018-06-04T05:53:10.931Z,67.96
2018-06-04T05:56:14.135Z,67.89
2018-06-04T05:59:17.271Z,67.62
2018-06-04T06:02:20.459Z,67.65
2018-06-04T06:05:23.691Z,67.68
2018-06-04T06:08:27.711Z,67.34
2018-06-04T06:11:30.963Z,66.83
2018-06-04T06:14:34.133Z,65.95
2018-06-04T06:17:37.307Z,65.77
2018-06-04T06:20:40.507Z,65.75
2018-06-04T06:23:43.743Z,65.48
2018-06-04T06:26:46.935Z,64.42
2018-06-04T06:29:50.063Z,64.58
2018-06-04T06:32:53.254Z,64.63
2018-06-04T06:35:56.418Z,64.92
2018-06-04T06:38:59.549Z,64.30
2018-06-04T06:42:02.741Z,63.91
2018-06-04T06:45:05.954Z,64.33
2018-06-04T06:48:09.140Z,63.88
2018-06-04T06:51:12.311Z,63.28
2018-06-04T06:54:15.525Z,62.43
2018-06-04T06:57:18.708Z,62.72
2018-06-04T07:00:21.935Z,61.57
2018-06-04T07:03:25.118Z,60.85
2018-06-04T07:06:28.270Z,61.49
2018-06-04T07:09:31.464Z,60.99
2018-06-04T07:12:34.642Z,60.06
2018-06-04T07:15:37.813Z,59.51
2018-06-04T07:18:41.786Z,59.89
2018-06-04T07:21:45.025Z,59.43
2018-06-04T07:24:49.131Z,58.96
2018-06-04T07:27:52.333Z,59.28
2018-06-04T07:30:55.504Z,59.95
2018-06-04T07:33:58.775Z,58.81
2018-06-04T07:37:02.040Z,58.25
2018-06-04T07:40:05.291Z,58.07
2018-06-04T07:43:08.511Z,58.72
2018-06-04T07:46:11.729Z,57.58
2018-06-04T07:49:16.109Z,57.75
2018-06-04T07:52:19.749Z,57.73
2018-06-04T07:55:23.002Z,56.62
2018-06-04T07:58:26.239Z,56.50
2018-06-04T08:01:29.462Z,56.00
2018-06-04T08:04:32.696Z,55.65
2018-06-04T08:07:36.019Z,55.41
2018-06-04T08:10:39.938Z,53.77
2018-06-04T08:13:43.252Z,54.94
2018-06-04T08:16:46.393Z,54.48
2018-06-04T08:19:49.582Z,54.80
2018-06-04T08:22:52.741Z,53.85
2018-06-04T08:25:56.506Z,53.05
2018-06-04T08:28:59.697Z,52.14
2018-06-04T08:32:02.863Z,52.19
2018-06-04T08:35:06.080Z,51.53
2018-06-04T08:38:09.316Z,50.65
2018-06-04T08:41:12.478Z,51.70
2018-06-04T08:44:15.659Z,51.03
2018-06-04T08:47:18.842Z,51.09
2018-06-04T08:50:22.066Z,51.39
2018-06-04T08:53:25.330Z,51.73
2018-06-04T08:56:28.588Z,50.91
2018-06-04T08:59:31.892Z,50.06
2018-06-04T09:02:35.153Z,50.40
2018-06-04T09:05:38.440Z,50.48
2018-06-04T09:08:41.722Z,48.00
2018-06-04T09:11:45.005Z,48.48
2018-06-04T09:14:48.458Z,49.20
2018-06-04T09:17:51.880Z,48.25
2018-06-04T09:20:55.033Z,49.11
2018-06-04T09:23:58.378Z,48.32
2018-06-04T09:27:01.572Z,48.02
2018-06-04T09:30:04.845Z,47.84
2018-06-04T09:33:08.102Z,46.78
2018-06-04T09:36:12.761Z,46.83
2018-06-04T09:39:16.085Z,46.90
2018-06-04T09:42:19.280Z,46.81
2018-06-04T09:45:23.638Z,46.87
2018-06-04T09:48:26.861Z,47.15
2018-06-04T09:51:30.141Z,47.14
2018-06-04T09:54:33.351Z,46.17
2018-06-04T09:57:36.579Z,44.85
2018-06-04T10:00:39.968Z,44.75
2018-06-04T10:03:43.217Z,44.78
2018-06-04T10:06:47.330Z,46.22
2018-06-04T10:09:50.588Z,46.90
2018-06-04T10:12:53.825Z,45.22
2018-06-04T10:15:57.847Z,45.62
2018-06-04T10:19:01.099Z,45.44
2018-06-04T10:22:04.413Z,46.89
2018-06-04T10:25:07.706Z,46.83
2018-06-04T10:28:11.023Z,46.48
2018-06-04T10:31:15.253Z,45.97
2018-06-04T10:34:18.447Z,44.73
2018-06-04T10:37:21.668Z,43.04
2018-06-04T10:40:24.926Z,43.52
2018-06-04T10:43:28.106Z,43.69
2018-06-04T10:46:31.415Z,44.91
2018-06-04T10:49:35.894Z,44.74
2018-06-04T10:52:39.198Z,44.50
2018-06-04T10:55:42.414Z,44.77
2018-06-04T10:58:45.709Z,45.77
2018-06-04T11:01:48.925Z,45.10
2018-06-04T11:04:52.152Z,46.14
2018-06-04T11:07:55.290Z,45.78
2018-06-04T11:10:58.576Z,44.50
2018-06-04T11:14:01.728Z,45.17
2018-06-04T11:17:04.967Z,44.49
2018-06-04T11:20:08.161Z,45.64
2018-06-04T11:23:11.416Z,45.13
2018-06-04T11:26:14.644Z,44.07
2018-06-04T11:29:17.844Z,44.96
2018-06-04T11:32:21.137Z,44.76
2018-06-04T11:35:24.412Z,45.03
2018-06-04T11:38:27.729Z,44.10
2018-06-04T11:41:31.033Z,42.62
2018-06-04T11:44:34.292Z,41.55
2018-06-04T11:47:37.515Z,41.53
2018-06-04T11:50:40.739Z,42.08
2018-06-04T11:53:43.972Z,41.93
2018-06-04T11:56:47.267Z,44.05
2018-06-04T11:59:50.592Z,43.60
2018-06-04T12:02:53.962Z,43.52
2018-06-04T12:05:57.175Z,43.51
2018-06-04T12:09:01.071Z,42.82
2018-06-04T12:12:04.325Z,42.34
2018-06-04T12:15:07.561Z,42.08
2018-06-04T12:18:10.793Z,41.81
2018-06-04T12:21:14.344Z,41.05
2018-06-04T12:24:17.583Z,42.25
2018-06-04T12:27:20.795Z,40.72
2018-06-04T12:30:24.062Z,40.16
2018-06-04T12:33:27.437Z,41.54
2018-06-04T12:36:30.826Z,41.70
2018-06-04T12:39:34.160Z,40.45
2018-06-04T12:42:37.407Z,39.53
2018-06-04T12:45:40.595Z,39.22
2018-06-04T12:48:43.936Z,40.65
2018-06-04T12:51:47.152Z,41.45
2018-06-04T12:54:50.462Z,40.69
2018-06-04T12:57:54.804Z,40.02
2018-06-04T13:00:58.164Z,39.16
2018-06-04T13:04:01.405Z,39.70
2018-06-04T13:07:04.742Z,39.23
2018-06-04T13:10:11.662Z,40.55
2018-06-04T13:13:14.935Z,41.41
2018-06-04T13:16:18.430Z,42.10
2018-06-04T13:19:22.714Z,41.94
2018-06-04T13:22:25.975Z,40.48
2018-06-04T13:25:29.207Z,41.02
2018-06-04T13:28:32.429Z,41.25
2018-06-04T13:31:35.683Z,41.27
2018-06-04T13:34:38.930Z,42.30
2018-06-04T13:37:42.123Z,42.76
2018-06-04T13:40:45.405Z,41.91
2018-06-04T13:43:48.633Z,42.17
2018-06-04T13:46:51.902Z,42.31
2018-06-04T13:49:55.373Z,43.01
2018-06-04T13:52:58.633Z,40.89
2018-06-04T13:56:02.185Z,41.01
2018-06-04T13:59:06.116Z,42.22
2018-06-04T14:02:09.456Z,42.42
2018-06-04T14:05:12.924Z,40.96
2018-06-04T14:59:04.689Z,41.79
2018-06-04T15:02:08.166Z,41.46
2018-06-04T15:05:11.494Z,41.96
2018-06-04T15:08:14.826Z,42.72
2018-06-04T15:11:18.469Z,42.50
2018-06-04T15:14:21.900Z,43.26
2018-06-04T15:17:25.253Z,43.77
2018-06-04T15:20:28.871Z,43.22
2018-06-04T15:23:32.817Z,44.54
2018-06-04T15:26:37.348Z,43.78
2018-06-04T15:29:40.681Z,43.55
2018-06-04T15:32:44.024Z,47.48
2018-06-04T15:35:47.939Z,45.22
2018-06-04T15:38:51.319Z,47.36
2018-06-04T15:41:54.609Z,45.90
2018-06-04T15:44:57.919Z,44.90
2018-06-04T15:48:01.206Z,45.59
2018-06-04T15:51:04.720Z,46.29
2018-06-04T15:54:08.101Z,45.07
2018-06-04T15:57:13.882Z,46.46
2018-06-04T16:00:17.314Z,46.08
2018-06-04T16:03:20.983Z,47.05
2018-06-04T16:06:24.710Z,45.83
2018-06-04T16:09:28.008Z,46.69
2018-06-04T16:12:32.025Z,47.87
2018-06-04T16:15:36.489Z,45.75
2018-06-04T16:18:39.877Z,45.77
2018-06-04T16:21:43.320Z,45.98
2018-06-04T16:24:46.763Z,46.87
2018-06-04T16:27:50.072Z,46.10
2018-06-04T16:30:53.580Z,45.85
2018-06-04T16:33:57.152Z,46.06
2018-06-04T16:37:01.331Z,46.67
2018-06-04T16:40:05.576Z,46.65
2018-06-04T16:43:09.225Z,46.60
2018-06-04T16:46:12.816Z,47.19
2018-06-04T16:49:16.362Z,46.57
2018-06-04T16:52:19.785Z,46.94
2018-06-04T16:55:23.892Z,47.75
2018-06-04T16:58:28.118Z,47.89
2018-06-04T17:01:32.306Z,48.14
2018-06-04T17:04:35.730Z,47.61
2018-06-04T17:07:39.204Z,46.97
2018-06-04T17:10:42.625Z,47.41
2018-06-04T17:13:46.273Z,48.26
2018-06-04T17:16:49.809Z,47.95
2018-06-04T17:19:53.389Z,48.17
2018-06-04T17:22:57.289Z,48.42
2018-06-04T17:26:00.830Z,48.97
2018-06-04T17:29:04.489Z,49.05
2018-06-04T17:32:07.972Z,48.11
2018-06-04T17:35:11.456Z,49.33
2018-06-04T17:38:15.093Z,47.36
2018-06-04T17:41:18.501Z,47.54
2018-06-04T17:44:21.923Z,49.18
2018-06-04T17:47:26.339Z,47.93
2018-06-04T17:50:29.872Z,47.46
2018-06-04T17:53:33.481Z,47.41
2018-06-04T17:56:36.912Z,48.23
2018-06-04T17:59:40.521Z,48.28
2018-06-04T18:02:44.252Z,47.44
2018-06-04T18:05:47.752Z,47.81
2018-06-04T18:08:51.911Z,46.47
2018-06-04T18:11:55.384Z,47.26
2018-06-04T18:14:58.968Z,46.58
2018-06-04T18:18:02.376Z,47.24
2018-06-04T18:21:05.717Z,46.24
2018-06-04T18:24:09.101Z,48.69
2018-06-04T18:27:13.149Z,46.89
2018-06-04T18:30:16.898Z,47.82
2018-06-04T18:33:20.484Z,46.51
2018-06-04T18:36:24.003Z,47.81
2018-06-04T18:39:27.931Z,49.34
2018-06-04T18:42:31.603Z,47.81
2018-06-04T18:45:35.287Z,48.43
2018-06-04T18:48:38.741Z,46.98
2018-06-04T18:51:42.268Z,47.88
2018-06-04T18:54:46.748Z,47.62
2018-06-04T18:57:50.932Z,48.14
2018-06-04T19:00:54.420Z,48.31
2018-06-04T19:03:58.096Z,49.16
2018-06-04T19:07:01.649Z,49.70
2018-06-04T19:10:05.324Z,49.91
2018-06-04T19:13:08.947Z,50.34
2018-06-04T19:16:12.449Z,49.61
2018-06-04T19:19:15.879Z,50.46
2018-06-04T19:22:19.677Z,49.83
2018-06-04T19:25:24.105Z,49.30
2018-06-04T19:28:27.642Z,49.57
2018-06-04T19:31:31.310Z,51.02
2018-06-04T19:34:34.801Z,51.23
2018-06-04T19:37:38.212Z,51.87
2018-06-04T19:40:41.805Z,52.66
2018-06-04T19:43:45.280Z,52.29
2018-06-04T19:46:48.806Z,54.46
2018-06-04T19:49:52.282Z,55.65
2018-06-04T19:52:56.006Z,54.75
2018-06-04T19:55:59.485Z,54.68
2018-06-04T19:59:02.898Z,53.93
2018-06-04T20:02:06.451Z,55.07
2018-06-04T20:05:09.833Z,55.04
2018-06-04T20:08:13.297Z,54.36
2018-06-04T20:11:16.909Z,54.97
2018-06-04T20:14:20.551Z,55.00
2018-06-04T20:17:24.182Z,56.58
2018-06-04T20:20:28.029Z,54.78
2018-06-04T20:23:31.836Z,55.59
2018-06-04T20:26:36.224Z,54.86
2018-06-04T20:29:39.557Z,55.77
2018-06-04T20:32:42.847Z,56.42
2018-06-04T20:35:46.128Z,56.56
2018-06-04T20:38:49.498Z,58.29
2018-06-04T20:41:53.913Z,58.17
2018-06-04T20:44:57.207Z,57.61
2018-06-04T20:48:00.526Z,58.51
2018-06-04T20:51:03.945Z,58.17
2018-06-04T20:54:07.269Z,58.33
2018-06-04T20:57:11.350Z,58.63
2018-06-04T21:00:14.580Z,58.60
2018-06-04T21:03:18.025Z,59.42
2018-06-04T21:06:21.370Z,59.23
2018-06-04T21:09:24.758Z,59.37
2018-06-04T21:12:28.052Z,59.94
2018-06-04T21:15:31.283Z,60.17
2018-06-04T21:18:34.554Z,59.94
2018-06-04T21:21:37.848Z,59.99
2018-06-04T21:24:41.095Z,59.45
2018-06-04T21:27:44.415Z,60.03
2018-06-04T21:30:47.655Z,59.92
2018-06-04T21:33:50.948Z,60.47
2018-06-04T21:36:54.180Z,61.38
2018-06-04T21:39:57.413Z,62.70
2018-06-04T21:43:00.677Z,61.77
2018-06-04T21:46:04.001Z,61.17
2018-06-04T21:49:07.295Z,61.35
2018-06-04T21:52:10.630Z,62.82
2018-06-04T21:55:13.906Z,62.50
2018-06-04T21:58:17.241Z,62.13
2018-06-04T22:01:20.479Z,63.92
2018-06-04T22:04:23.699Z,63.21
2018-06-04T22:07:26.907Z,64.93
2018-06-04T22:10:30.100Z,66.14
2018-06-04T22:13:33.276Z,65.31
2018-06-04T22:16:36.499Z,64.61
2018-06-04T22:19:39.696Z,64.65
2018-06-04T22:22:43.062Z,64.84
2018-06-04T22:25:46.292Z,64.14
2018-06-04T22:28:49.480Z,64.38
2018-06-04T22:31:52.664Z,65.56
2018-06-04T22:34:55.860Z,64.70
2018-06-04T22:37:59.080Z,63.83
2018-06-04T22:41:02.388Z,63.19
2018-06-04T22:44:05.755Z,63.81
2018-06-04T22:47:08.939Z,66.77
2018-06-04T22:50:12.194Z,64.78
2018-06-04T22:53:15.385Z,65.40
2018-06-04T22:56:18.533Z,63.56
2018-06-04T22:59:21.719Z,63.32
2018-06-04T23:02:24.971Z,64.11
2018-06-04T23:05:28.251Z,64.05
2018-06-04T23:08:31.438Z,64.26
2018-06-04T23:11:34.624Z,64.41
2018-06-04T23:14:37.796Z,64.80
2018-06-04T23:17:40.990Z,66.30
2018-06-04T23:20:44.132Z,65.25
2018-06-04T23:23:47.350Z,65.38
2018-06-04T23:26:50.507Z,64.60
2018-06-04T23:29:53.694Z,64.07
2018-06-04T23:32:56.876Z,64.57
2018-06-04T23:36:00.052Z,66.26
2018-06-04T23:39:03.254Z,66.06
2018-06-04T23:42:06.435Z,66.63
2018-06-04T23:45:09.570Z,64.94
2018-06-04T23:48:12.759Z,64.71
2018-06-04T23:51:15.870Z,64.88
2018-06-04T23:54:19.054Z,65.30
2018-06-04T23:57:22.216Z,66.36
